Time;durP1;ratioP1;P1;durP2;ratioP2;P2;SDS_P1;SDS_P2;PMS_P1;PMS_P2;Temp;Humidity;BMP_temperature;BMP_pressure;BME280_temperature;BME280_humidity;BME280_pressure;Samples;Min_cycle;Max_cycle;Signal;HPM_P1;HPM_P2
2023/04/17 04:00:54;;;;;;;6.55;6.03;;;7.40;99.90;;;;;;5823803;22;20225;-69
2023/04/17 04:03:20;;;;;;;6.25;5.47;;;7.40;99.90;;;;;;5028214;28;20702;-69
2023/04/17 04:05:47;;;;;;;11.50;7.97;;;7.40;99.90;;;;;;5031636;28;20211;-70
2023/04/17 04:08:14;;;;;;;4.57;4.38;;;7.40;99.90;;;;;;5031865;28;20659;-69
2023/04/17 04:10:43;;;;;;;11.70;6.95;;;7.40;99.90;;;;;;5032510;28;20467;-69
2023/04/17 04:13:09;;;;;;;9.85;7.63;;;7.30;99.90;;;;;;5030587;28;20203;-69
2023/04/17 04:15:36;;;;;;;6.45;5.78;;;7.40;99.90;;;;;;5032278;28;20209;-70
2023/04/17 04:18:04;;;;;;;8.63;6.53;;;7.30;99.90;;;;;;5033102;28;20222;-69
2023/04/17 04:20:32;;;;;;;8.30;6.75;;;7.30;99.90;;;;;;5032439;28;20233;-69
2023/04/17 04:22:58;;;;;;;7.40;6.00;;;7.30;99.90;;;;;;5031967;28;20218;-69
2023/04/17 04:25:25;;;;;;;7.75;7.05;;;7.30;99.90;;;;;;5031629;28;20213;-68
2023/04/17 04:27:55;;;;;;;8.70;6.25;;;7.30;99.90;;;;;;5029773;28;20757;-68
2023/04/17 04:30:24;;;;;;;5.88;5.03;;;7.30;99.90;;;;;;5031710;28;20241;-68
2023/04/17 04:32:51;;;;;;;10.55;5.78;;;7.30;99.90;;;;;;5029764;28;20221;-68
2023/04/17 04:35:19;;;;;;;4.32;4.15;;;7.30;99.90;;;;;;5031158;28;20203;-68
2023/04/17 04:37:46;;;;;;;9.02;5.40;;;7.30;99.90;;;;;;5031400;28;20206;-68
2023/04/17 04:40:13;;;;;;;9.57;5.05;;;7.30;99.90;;;;;;5030388;28;20229;-68
2023/04/17 04:42:41;;;;;;;13.55;6.95;;;7.40;99.90;;;;;;5031200;28;20551;-68
2023/04/17 04:45:09;;;;;;;6.25;5.18;;;7.30;99.90;;;;;;5031068;28;20237;-68
2023/04/17 04:47:36;;;;;;;7.03;5.80;;;7.40;99.90;;;;;;5031632;28;20246;-68
2023/04/17 04:50:03;;;;;;;7.68;5.15;;;7.40;99.90;;;;;;5031563;28;20223;-69
2023/04/17 04:52:31;;;;;;;11.90;6.00;;;7.40;99.90;;;;;;5030867;28;20226;-69
2023/04/17 04:54:57;;;;;;;7.80;4.97;;;7.40;99.90;;;;;;5019787;28;20207;-69
2023/04/17 04:57:24;;;;;;;8.85;7.28;;;7.40;99.90;;;;;;5030321;28;20210;-69
2023/04/17 04:59:51;;;;;;;12.20;6.25;;;7.50;99.90;;;;;;5031419;28;20217;-69
2023/04/17 05:02:17;;;;;;;17.58;9.10;;;7.50;99.90;;;;;;5031259;28;20250;-69
2023/04/17 05:04:44;;;;;;;14.40;8.05;;;7.50;99.90;;;;;;5031044;28;20234;-69
2023/04/17 05:07:11;;;;;;;11.88;6.40;;;7.60;99.90;;;;;;5030520;28;20260;-69
2023/04/17 05:09:39;;;;;;;11.57;7.20;;;7.50;99.90;;;;;;5030654;28;20222;-69
2023/04/17 05:12:06;;;;;;;13.18;6.82;;;7.60;99.90;;;;;;5030674;28;20227;-69
2023/04/17 05:14:33;;;;;;;8.65;7.22;;;7.60;99.90;;;;;;5030793;28;20210;-68
2023/04/17 05:17:00;;;;;;;8.00;7.05;;;7.70;99.90;;;;;;5031227;28;20217;-69
2023/04/17 05:19:26;;;;;;;9.35;7.53;;;7.70;99.90;;;;;;5031103;28;20264;-69
2023/04/17 05:21:53;;;;;;;13.60;9.15;;;7.70;99.90;;;;;;5029381;28;20253;-69
2023/04/17 05:24:20;;;;;;;8.82;8.10;;;7.80;99.90;;;;;;5029668;28;20202;-69
2023/04/17 05:26:48;;;;;;;8.32;6.88;;;7.80;99.90;;;;;;5030570;28;20583;-70
2023/04/17 05:29:15;;;;;;;10.00;7.72;;;7.90;99.90;;;;;;5031081;28;20222;-69
2023/04/17 05:31:41;;;;;;;7.65;5.10;;;7.90;99.90;;;;;;5031006;28;20238;-69
2023/04/17 05:34:08;;;;;;;13.73;7.78;;;8.00;99.90;;;;;;5027767;28;20211;-68
2023/04/17 05:36:35;;;;;;;9.98;6.30;;;8.00;99.90;;;;;;5029914;28;20579;-69
2023/04/17 05:39:02;;;;;;;16.52;6.60;;;8.10;99.90;;;;;;5030088;28;20285;-69
2023/04/17 05:41:30;;;;;;;16.00;9.20;;;8.20;99.90;;;;;;5030451;28;20307;-69
2023/04/17 05:43:58;;;;;;;9.05;7.22;;;8.20;99.90;;;;;;5029736;28;20211;-69
2023/04/17 05:46:24;;;;;;;11.43;7.75;;;8.30;99.90;;;;;;5036297;28;20328;-69
2023/04/17 05:48:51;;;;;;;11.25;7.22;;;8.40;99.90;;;;;;5039273;28;20333;-71
2023/04/17 05:51:18;;;;;;;6.22;5.68;;;8.40;99.90;;;;;;5040498;28;20230;-70
2023/04/17 05:53:45;;;;;;;10.85;6.65;;;8.50;99.90;;;;;;5033759;28;20658;-69
2023/04/17 05:56:11;;;;;;;11.32;7.10;;;8.70;99.90;;;;;;5032058;28;20206;-69
2023/04/17 05:58:38;;;;;;;10.25;7.90;;;8.80;99.90;;;;;;5030966;28;20203;-70
2023/04/17 06:01:06;;;;;;;13.70;8.32;;;8.90;99.90;;;;;;5030521;28;20245;-69
2023/04/17 06:03:33;;;;;;;9.75;6.85;;;9.10;99.90;;;;;;5029868;28;20559;-69
2023/04/17 06:06:00;;;;;;;14.40;9.73;;;9.30;99.90;;;;;;5029656;28;20202;-68
2023/04/17 06:08:26;;;;;;;9.68;7.88;;;9.60;99.90;;;;;;5029300;28;20630;-68
2023/04/17 06:10:54;;;;;;;14.95;8.18;;;10.00;99.90;;;;;;5030237;28;20288;-68
2023/04/17 06:13:21;;;;;;;10.73;8.10;;;10.30;99.90;;;;;;5028047;28;20237;-68
2023/04/17 06:15:49;;;;;;;9.90;6.47;;;10.50;99.90;;;;;;5030598;28;20261;-69
2023/04/17 06:18:17;;;;;;;10.82;7.15;;;10.70;99.90;;;;;;5030274;28;20211;-70
2023/04/17 06:20:44;;;;;;;11.27;5.57;;;10.50;99.90;;;;;;5030211;28;20230;-68
2023/04/17 06:23:11;;;;;;;12.70;8.17;;;10.50;99.90;;;;;;5030015;28;20465;-69
2023/04/17 06:25:37;;;;;;;8.57;6.30;;;10.60;99.90;;;;;;5029906;28;20465;-68
2023/04/17 06:28:05;;;;;;;8.77;6.82;;;10.60;99.90;;;;;;5028950;28;20211;-69
2023/04/17 06:30:31;;;;;;;8.38;6.90;;;10.50;99.90;;;;;;5028330;28;20226;-67
2023/04/17 06:32:58;;;;;;;15.80;6.70;;;10.60;99.90;;;;;;5026634;28;20208;-68
2023/04/17 06:35:26;;;;;;;9.40;6.20;;;10.60;99.90;;;;;;5029463;28;20468;-68
2023/04/17 06:37:53;;;;;;;11.57;8.75;;;10.70;99.90;;;;;;5029776;28;20696;-68
2023/04/17 06:40:20;;;;;;;6.83;6.20;;;10.90;99.90;;;;;;5029969;28;20202;-69
2023/04/17 06:42:47;;;;;;;7.23;5.70;;;11.00;99.90;;;;;;5029474;28;20847;-70
2023/04/17 06:45:14;;;;;;;11.87;7.40;;;11.00;99.90;;;;;;5028487;28;20473;-69
2023/04/17 06:47:41;;;;;;;11.40;7.97;;;11.20;99.90;;;;;;5029709;28;20457;-68
2023/04/17 06:50:09;;;;;;;8.40;6.17;;;11.20;99.90;;;;;;5029807;28;20538;-68
2023/04/17 06:52:37;;;;;;;8.03;6.20;;;11.20;99.90;;;;;;5029635;28;20481;-69
2023/04/17 06:55:04;;;;;;;15.10;9.60;;;11.30;99.90;;;;;;5029533;28;20469;-68
2023/04/17 06:57:32;;;;;;;8.50;7.53;;;11.20;99.90;;;;;;5029542;28;20465;-68
2023/04/17 06:59:59;;;;;;;12.20;8.07;;;11.20;99.90;;;;;;5028935;28;20461;-69
2023/04/17 07:02:26;;;;;;;6.85;5.53;;;11.20;99.90;;;;;;5029844;28;20854;-69
2023/04/17 07:04:53;;;;;;;14.20;8.33;;;11.20;99.90;;;;;;5029273;28;20217;-68
2023/04/17 07:07:20;;;;;;;10.73;6.68;;;11.30;99.90;;;;;;5029595;28;20465;-69
2023/04/17 07:09:48;;;;;;;7.37;5.73;;;11.40;99.90;;;;;;5029103;28;20253;-68
2023/04/17 07:12:15;;;;;;;8.32;6.57;;;11.40;99.90;;;;;;5029379;28;20485;-69
2023/04/17 07:14:42;;;;;;;7.10;6.03;;;11.50;99.90;;;;;;5028366;28;20214;-68
2023/04/17 07:17:09;;;;;;;11.53;7.47;;;11.50;99.90;;;;;;5032769;28;20844;-67
2023/04/17 07:19:36;;;;;;;7.70;6.20;;;11.40;99.90;;;;;;5033211;28;20463;-69
2023/04/17 07:22:04;;;;;;;6.10;5.57;;;11.40;99.90;;;;;;5032033;28;20819;-68
2023/04/17 07:24:33;;;;;;;8.83;5.20;;;11.50;99.90;;;;;;5031615;28;20544;-69
2023/04/17 07:27:02;;;;;;;8.97;6.20;;;11.60;99.90;;;;;;5032731;28;20518;-69
2023/04/17 07:29:29;;;;;;;4.90;4.50;;;11.80;99.90;;;;;;5031606;28;20550;-69
2023/04/17 07:31:55;;;;;;;8.30;5.70;;;11.70;99.90;;;;;;5032957;28;20513;-69
2023/04/17 07:34:24;;;;;;;6.67;3.60;;;11.70;99.90;;;;;;5029358;28;21000;-69
2023/04/17 07:36:52;;;;;;;6.80;6.10;;;11.70;99.90;;;;;;5032908;28;20456;-69
2023/04/17 07:39:18;;;;;;;6.60;5.27;;;11.70;99.90;;;;;;5032454;28;20469;-68
2023/04/17 07:41:45;;;;;;;8.77;5.73;;;11.70;99.90;;;;;;5032387;28;21004;-69
2023/04/17 07:44:13;;;;;;;7.13;6.27;;;11.70;99.90;;;;;;5031336;28;20947;-68
2023/04/17 07:46:40;;;;;;;8.70;4.93;;;11.70;99.90;;;;;;5032943;28;20488;-68
2023/04/17 07:49:08;;;;;;;4.70;4.30;;;11.70;99.90;;;;;;5032967;28;20468;-69
2023/04/17 07:51:37;;;;;;;7.87;6.40;;;11.70;99.90;;;;;;5033115;28;20492;-68
2023/04/17 07:54:03;;;;;;;6.47;5.80;;;11.70;99.90;;;;;;5032880;28;20468;-69
2023/04/17 07:56:33;;;;;;;7.00;5.33;;;11.70;99.90;;;;;;5030680;28;20942;-68
2023/04/17 07:59:00;;;;;;;9.60;5.00;;;11.70;99.90;;;;;;5032598;28;21042;-70
2023/04/17 08:01:28;;;;;;;11.80;5.23;;;11.90;99.90;;;;;;5034988;28;20485;-69
2023/04/17 08:03:54;;;;;;;5.67;5.13;;;12.10;99.90;;;;;;5034995;28;20469;-68
2023/04/17 08:06:21;;;;;;;5.40;4.90;;;12.20;99.90;;;;;;5036098;28;20465;-69
2023/04/17 08:08:48;;;;;;;12.37;7.03;;;12.30;99.90;;;;;;5033657;28;20465;-67
2023/04/17 08:11:14;;;;;;;5.33;4.93;;;12.30;99.90;;;;;;5032969;28;20484;-67
2023/04/17 08:13:41;;;;;;;7.17;6.07;;;12.20;99.90;;;;;;5032743;28;20483;-68
2023/04/17 08:16:09;;;;;;;17.70;5.60;;;12.10;99.90;;;;;;5032516;28;20842;-70
2023/04/17 08:18:38;;;;;;;5.45;3.80;;;12.10;99.90;;;;;;5032192;28;20465;-70
2023/04/17 08:21:05;;;;;;;4.78;4.25;;;12.00;99.90;;;;;;5032284;28;20332;-69
2023/04/17 08:23:31;;;;;;;4.67;4.27;;;12.00;99.90;;;;;;5029793;28;20237;-69
2023/04/17 08:25:58;;;;;;;7.20;5.78;;;12.10;99.90;;;;;;5031451;28;20472;-69
2023/04/17 08:28:25;;;;;;;5.72;4.88;;;12.20;99.90;;;;;;5032304;28;20328;-69
2023/04/17 08:30:52;;;;;;;7.85;4.50;;;12.30;99.90;;;;;;5032235;28;20603;-69
2023/04/17 08:33:19;;;;;;;6.20;5.67;;;12.30;99.90;;;;;;5031422;28;20636;-70
2023/04/17 08:35:47;;;;;;;5.10;4.47;;;12.30;99.90;;;;;;5031775;28;20484;-70
2023/04/17 08:38:14;;;;;;;7.63;5.33;;;12.30;99.90;;;;;;5030402;28;20207;-69
2023/04/17 08:40:45;;;;;;;10.37;5.83;;;12.50;99.90;;;;;;5031736;28;20480;-69
2023/04/17 08:43:15;;;;;;;7.40;5.73;;;12.50;99.90;;;;;;5031808;28;20564;-69
2023/04/17 08:45:51;;;;;;;8.95;5.32;;;12.60;99.90;;;;;;5032010;28;20465;-69
2023/04/17 08:48:18;;;;;;;5.17;4.77;;;12.60;99.90;;;;;;5031903;28;20609;-69
2023/04/17 08:50:48;;;;;;;8.90;5.83;;;12.60;99.90;;;;;;5030445;28;20493;-70
2023/04/17 08:53:15;;;;;;;7.77;5.97;;;12.60;99.90;;;;;;5030817;28;20976;-70
2023/04/17 08:55:42;;;;;;;14.40;6.43;;;12.60;99.90;;;;;;5031667;28;20583;-70
2023/04/17 08:58:09;;;;;;;6.30;5.80;;;12.70;99.90;;;;;;5029922;28;20465;-69
2023/04/17 09:00:37;;;;;;;12.07;6.97;;;12.80;99.90;;;;;;5031271;28;20572;-70
2023/04/17 09:03:06;;;;;;;5.83;5.23;;;12.80;99.90;;;;;;5030680;28;20487;-69
2023/04/17 09:05:33;;;;;;;4.97;4.40;;;12.90;99.90;;;;;;5028247;28;20464;-71
2023/04/17 09:08:11;;;;;;;6.80;6.17;;;12.90;99.90;;;;;;5038973;28;20453;-71
2023/04/17 09:10:38;;;;;;;7.33;4.40;;;12.90;99.90;;;;;;5038093;28;20581;-69
2023/04/17 09:13:05;;;;;;;10.83;6.77;;;12.90;99.90;;;;;;5032665;28;20472;-70
2023/04/17 09:15:32;;;;;;;6.53;5.47;;;13.00;99.90;;;;;;5031173;28;20501;-69
2023/04/17 09:17:59;;;;;;;9.80;3.77;;;13.00;99.90;;;;;;5030003;28;20461;-69
2023/04/17 09:20:26;;;;;;;7.80;5.50;;;13.10;99.90;;;;;;5031403;28;20475;-69
2023/04/17 09:23:00;;;;;;;24.40;6.20;;;13.30;99.90;;;;;;5030516;28;20469;-70
2023/04/17 09:25:29;;;;;;;9.47;6.93;;;13.40;99.90;;;;;;5025230;28;20484;-71
2023/04/17 09:28:10;;;;;;;6.57;5.93;;;13.40;99.90;;;;;;5031812;28;20461;-69
2023/04/17 09:30:37;;;;;;;6.77;5.90;;;13.50;99.90;;;;;;5029937;28;20787;-70
2023/04/17 09:33:05;;;;;;;7.97;7.20;;;13.50;99.90;;;;;;5030969;28;20461;-69
2023/04/17 09:35:33;;;;;;;7.40;6.40;;;13.70;99.90;;;;;;5030920;28;20917;-69
2023/04/17 09:38:00;;;;;;;6.73;6.07;;;13.80;99.90;;;;;;5029654;28;20472;-69
2023/04/17 09:40:36;;;;;;;7.97;5.57;;;13.90;99.90;;;;;;5031865;28;20501;-70
2023/04/17 09:43:04;;;;;;;6.77;4.80;;;14.10;99.90;;;;;;5031040;28;20472;-70
2023/04/17 09:45:35;;;;;;;11.87;5.53;;;14.30;99.90;;;;;;5028845;28;20465;-70
2023/04/17 09:48:04;;;;;;;4.77;4.47;;;14.30;99.90;;;;;;5030861;28;20834;-70
2023/04/17 09:50:32;;;;;;;9.87;6.03;;;14.30;99.90;;;;;;5031164;28;20485;-70
2023/04/17 09:52:59;;;;;;;7.60;5.43;;;14.40;99.90;;;;;;5030906;28;20469;-70
2023/04/17 09:55:28;;;;;;;5.83;5.30;;;14.50;99.90;;;;;;5029887;28;20464;-70
2023/04/17 09:57:58;;;;;;;9.00;6.10;;;14.60;99.90;;;;;;5029221;28;20461;-69
2023/04/17 10:00:26;;;;;;;3.90;3.63;;;14.60;99.90;;;;;;5025593;28;20536;-69
2023/04/17 10:02:54;;;;;;;9.43;5.03;;;14.40;99.90;;;;;;5030771;28;20881;-70
2023/04/17 10:05:22;;;;;;;5.20;4.80;;;14.10;99.90;;;;;;5029859;28;20940;-70
2023/04/17 10:07:49;;;;;;;7.70;5.97;;;13.80;99.90;;;;;;5029852;28;20456;-69
2023/04/17 10:10:22;;;;;;;11.43;5.53;;;13.80;99.90;;;;;;5029133;28;20553;-70
2023/04/17 10:12:50;;;;;;;9.00;5.70;;;14.00;99.90;;;;;;5030064;28;20460;-70
2023/04/17 10:15:19;;;;;;;17.63;5.43;;;14.10;99.90;;;;;;5041660;22;21026;-70
2023/04/17 10:17:48;;;;;;;7.67;4.33;;;14.30;99.90;;;;;;5010329;28;20932;-71
2023/04/17 10:20:43;;;;;;;7.00;4.83;;;14.60;99.90;;;;;;5022016;28;20499;-69
2023/04/17 10:23:29;;;;;;;4.93;4.60;;;14.80;99.90;;;;;;5022541;28;20934;-69
2023/04/17 10:26:39;;;;;;;10.03;4.67;;;14.80;99.90;;;;;;5021733;28;20515;-69
2023/04/17 10:29:15;;;;;;;13.90;6.53;;;14.70;99.90;;;;;;5030523;28;20457;-69
2023/04/17 10:32:16;;;;;;;5.57;4.30;;;14.60;99.90;;;;;;5030429;28;20573;-71
2023/04/17 10:34:43;;;;;;;6.23;5.60;;;14.40;99.90;;;;;;5011854;28;20593;-71
2023/04/17 10:37:43;;;;;;;7.20;4.93;;;14.50;99.90;;;;;;5011176;28;20497;-70
2023/04/17 10:40:19;;;;;;;7.60;5.20;;;14.60;99.90;;;;;;5019040;28;20468;-69
2023/04/17 10:43:03;;;;;;;17.53;5.70;;;14.80;99.90;;;;;;5029995;28;20555;-69
2023/04/17 10:45:58;;;;;;;6.13;5.60;;;14.70;99.90;;;;;;5029945;28;20484;-69
2023/04/17 10:48:33;;;;;;;4.13;3.63;;;14.70;99.90;;;;;;5030261;28;20472;-70
2023/04/17 10:51:36;;;;;;;7.90;6.80;;;14.70;99.90;;;;;;5020457;28;20489;-70
2023/04/17 10:54:12;;;;;;;5.50;4.67;;;14.70;99.90;;;;;;5025051;28;20472;-70
2023/04/17 10:56:41;;;;;;;4.47;4.07;;;14.60;99.90;;;;;;5033697;28;20813;-71
2023/04/17 10:59:09;;;;;;;2.93;2.80;;;14.50;99.90;;;;;;5033750;28;20459;-70
2023/04/17 11:01:56;;;;;;;6.53;5.00;;;14.60;99.90;;;;;;5034071;28;21116;-70
2023/04/17 11:04:27;;;;;;;3.90;3.63;;;14.70;99.90;;;;;;5030087;28;20484;-70
2023/04/17 11:06:55;;;;;;;4.57;3.67;;;14.70;99.90;;;;;;5018820;28;20537;-69
2023/04/17 11:09:24;;;;;;;5.47;4.97;;;14.80;99.90;;;;;;4994109;28;20467;-70
2023/04/17 11:11:51;;;;;;;3.80;3.50;;;14.80;99.90;;;;;;4994045;28;20540;-69
2023/04/17 11:14:23;;;;;;;4.90;3.60;;;14.80;99.90;;;;;;5001767;28;21022;-71
2023/04/17 11:16:51;;;;;;;3.20;2.90;;;14.80;99.90;;;;;;5016785;28;20970;-70
2023/04/17 11:19:20;;;;;;;4.90;3.33;;;14.70;99.90;;;;;;5024941;28;20914;-70
2023/04/17 11:21:51;;;;;;;4.10;3.63;;;14.60;99.90;;;;;;5033378;28;20570;-70
2023/04/17 11:24:23;;;;;;;3.10;2.90;;;14.60;99.90;;;;;;5032368;28;20551;-70
2023/04/17 11:26:55;;;;;;;4.63;4.23;;;14.70;99.90;;;;;;5033144;28;20903;-71
2023/04/17 11:29:26;;;;;;;3.40;3.20;;;14.70;99.90;;;;;;5023658;28;20660;-69
2023/04/17 11:32:01;;;;;;;2.87;2.70;;;14.90;99.90;;;;;;5029623;28;20496;-68
2023/04/17 11:34:28;;;;;;;3.40;3.20;;;14.90;99.90;;;;;;5014342;28;20481;-69
2023/04/17 11:36:58;;;;;;;3.00;2.80;;;14.90;99.90;;;;;;5011459;28;20462;-68
2023/04/17 11:39:30;;;;;;;3.77;3.60;;;15.00;99.90;;;;;;5019094;28;20528;-68
2023/04/17 11:41:57;;;;;;;6.00;3.23;;;14.90;99.90;;;;;;5020323;28;20488;-70
2023/04/17 11:44:43;;;;;;;3.23;2.93;;;14.90;99.90;;;;;;5024835;28;20476;-69
2023/04/17 11:47:10;;;;;;;3.40;2.90;;;14.70;99.90;;;;;;5033200;28;20465;-69
2023/04/17 11:49:42;;;;;;;3.97;3.60;;;14.70;99.90;;;;;;5025036;28;20488;-69
2023/04/17 11:52:16;;;;;;;3.40;3.30;;;14.80;99.90;;;;;;5024553;28;20994;-70
2023/04/17 11:54:43;;;;;;;3.93;1.87;;;14.80;99.90;;;;;;5031708;28;20485;-71
2023/04/17 11:57:12;;;;;;;2.33;2.13;;;14.90;98.30;;;;;;5032252;28;20540;-70
2023/04/17 11:59:41;;;;;;;2.80;2.70;;;15.00;98.00;;;;;;5032637;28;20900;-70
2023/04/17 12:02:10;;;;;;;3.53;3.23;;;15.00;97.40;;;;;;5032153;28;20810;-69
2023/04/17 12:04:39;;;;;;;2.03;1.90;;;14.90;97.50;;;;;;5019717;28;20477;-70
2023/04/17 12:07:07;;;;;;;9.63;3.80;;;14.90;97.60;;;;;;5030729;28;20807;-69
2023/04/17 12:09:36;;;;;;;3.40;3.20;;;14.70;97.70;;;;;;5032206;28;20975;-70
2023/04/17 12:12:07;;;;;;;3.17;2.83;;;14.80;97.90;;;;;;5032069;28;20520;-70
2023/04/17 12:14:34;;;;;;;3.43;3.13;;;14.90;97.70;;;;;;5031304;28;20499;-69
2023/04/17 12:17:04;;;;;;;1.77;1.70;;;14.90;97.30;;;;;;5024696;28;20566;-70
2023/04/17 12:19:40;;;;;;;9.93;3.30;;;14.90;96.20;;;;;;5020927;28;20983;-70
2023/04/17 12:22:07;;;;;;;2.83;2.63;;;14.90;96.60;;;;;;5022320;28;21005;-70
2023/04/17 12:24:38;;;;;;;2.47;2.37;;;14.90;96.30;;;;;;5031076;28;20571;-70
2023/04/17 12:27:13;;;;;;;2.67;2.57;;;14.90;96.30;;;;;;5031944;28;20890;-70
2023/04/17 12:29:43;;;;;;;3.00;2.80;;;14.80;96.80;;;;;;5031540;28;20460;-71
2023/04/17 12:32:14;;;;;;;2.50;2.40;;;14.80;95.00;;;;;;5020604;28;20594;-70
2023/04/17 12:34:47;;;;;;;2.03;2.03;;;14.70;94.90;;;;;;5022937;28;20485;-70
2023/04/17 12:37:17;;;;;;;2.60;2.40;;;14.60;96.00;;;;;;5025695;28;20490;-71
2023/04/17 12:39:46;;;;;;;3.00;2.67;;;14.50;96.40;;;;;;5026613;28;20814;-70
2023/04/17 12:42:13;;;;;;;4.03;2.20;;;14.40;96.20;;;;;;5031404;28;20462;-70
2023/04/17 12:44:46;;;;;;;2.60;2.40;;;14.40;94.80;;;;;;5023619;28;20486;-71
2023/04/17 12:47:16;;;;;;;5.17;2.90;;;14.50;95.50;;;;;;5020126;28;20462;-69
2023/04/17 12:49:43;;;;;;;6.90;4.00;;;14.50;94.80;;;;;;5011908;28;20557;-70
2023/04/17 12:52:14;;;;;;;3.90;3.70;;;14.60;95.20;;;;;;5011996;28;20998;-71
2023/04/17 12:54:42;;;;;;;3.30;3.10;;;14.60;95.30;;;;;;5010787;28;20517;-70
2023/04/17 12:57:24;;;;;;;5.70;2.80;;;14.60;95.90;;;;;;5011148;28;20462;-69
2023/04/17 12:59:51;;;;;;;3.07;2.77;;;14.70;96.00;;;;;;5019258;28;20569;-70
2023/04/17 13:02:19;;;;;;;3.30;3.10;;;14.80;95.10;;;;;;5031328;28;20453;-70
2023/04/17 13:05:03;;;;;;;3.13;2.90;;;14.80;93.70;;;;;;5031055;28;20998;-70
2023/04/17 13:07:30;;;;;;;2.67;2.40;;;14.70;92.90;;;;;;5031829;28;20468;-70
2023/04/17 13:09:57;;;;;;;4.40;3.83;;;14.70;93.20;;;;;;5031831;28;20555;-70
2023/04/17 13:12:26;;;;;;;4.80;2.43;;;14.70;93.50;;;;;;5030857;28;20568;-69
2023/04/17 13:14:56;;;;;;;3.73;3.43;;;14.60;91.50;;;;;;5023858;28;20643;-71
2023/04/17 13:17:24;;;;;;;3.57;3.37;;;14.60;91.00;;;;;;5032284;28;20460;-69
2023/04/17 13:19:51;;;;;;;2.20;2.10;;;14.60;85.30;;;;;;5032305;28;20790;-69
2023/04/17 13:22:19;;;;;;;2.20;2.00;;;14.50;84.40;;;;;;5032821;28;20453;-70
2023/04/17 13:24:48;;;;;;;3.30;3.17;;;14.40;84.30;;;;;;5032066;28;20623;-69
2023/04/17 13:27:15;;;;;;;6.27;3.00;;;14.40;86.20;;;;;;5030234;28;20469;-70
2023/04/17 13:29:48;;;;;;;5.37;3.20;;;14.50;89.10;;;;;;5030597;28;20958;-68
2023/04/17 13:32:23;;;;;;;3.57;3.37;;;14.50;87.10;;;;;;5035234;28;21079;-70
2023/04/17 13:34:50;;;;;;;2.77;2.07;;;14.50;80.80;;;;;;5024610;28;20505;-70
2023/04/17 13:37:18;;;;;;;3.03;2.83;;;14.60;84.50;;;;;;5031307;28;20902;-69
2023/04/17 13:39:50;;;;;;;3.40;3.20;;;14.60;81.50;;;;;;5024539;28;20462;-69
2023/04/17 13:42:19;;;;;;;2.83;2.50;;;14.50;85.00;;;;;;5013264;28;20473;-68
2023/04/17 13:44:50;;;;;;;2.77;2.53;;;14.40;89.80;;;;;;5029519;28;20485;-68
2023/04/17 13:47:17;;;;;;;2.37;2.17;;;14.40;91.00;;;;;;5023244;28;20544;-68
2023/04/17 13:49:47;;;;;;;2.87;2.23;;;14.50;91.20;;;;;;5031347;28;20468;-71
2023/04/17 13:52:14;;;;;;;2.87;2.67;;;14.60;91.70;;;;;;5031382;28;20548;-70
2023/04/17 13:54:43;;;;;;;2.20;1.77;;;14.60;92.50;;;;;;5030104;28;20568;-69
2023/04/17 13:57:10;;;;;;;2.13;2.13;;;14.40;93.10;;;;;;5021894;28;20532;-69
2023/04/17 13:59:37;;;;;;;2.60;2.50;;;14.30;94.90;;;;;;5024590;28;20877;-67
2023/04/17 14:02:07;;;;;;;1.50;1.50;;;14.40;96.50;;;;;;5030950;28;20461;-69
2023/04/17 14:04:36;;;;;;;3.60;2.53;;;14.30;96.00;;;;;;5021526;28;20798;-69
2023/04/17 14:07:06;;;;;;;1.80;1.80;;;14.20;95.30;;;;;;5022630;28;20489;-68
2023/04/17 14:09:40;;;;;;;1.53;1.43;;;14.20;97.10;;;;;;5030326;28;20461;-69
2023/04/17 14:12:07;;;;;;;2.10;2.00;;;14.20;98.60;;;;;;5030144;28;20569;-69
2023/04/17 14:14:37;;;;;;;2.57;1.83;;;14.20;98.40;;;;;;5029962;28;20520;-70
2023/04/17 14:17:10;;;;;;;2.70;2.13;;;14.20;98.80;;;;;;5030390;28;20465;-70
2023/04/17 14:19:39;;;;;;;2.77;2.67;;;14.20;99.60;;;;;;5018430;28;20478;-70
2023/04/17 14:22:06;;;;;;;2.53;2.43;;;14.20;99.90;;;;;;5020316;28;20461;-70
2023/04/17 14:24:33;;;;;;;2.00;1.90;;;14.30;99.90;;;;;;5023819;28;20477;-70
2023/04/17 14:27:02;;;;;;;2.07;1.97;;;14.30;99.90;;;;;;5034341;28;20471;-70
2023/04/17 14:29:29;;;;;;;5.63;4.03;;;14.20;99.90;;;;;;5034264;28;20875;-70
2023/04/17 14:32:01;;;;;;;3.70;3.40;;;14.30;99.90;;;;;;5026236;28;20544;-70
2023/04/17 14:34:32;;;;;;;4.00;3.67;;;14.20;99.90;;;;;;5023919;28;20517;-71
2023/04/17 14:37:02;;;;;;;4.50;3.83;;;14.20;99.90;;;;;;5015030;28;20454;-71
2023/04/17 14:39:31;;;;;;;3.60;3.40;;;14.30;99.90;;;;;;5014585;28;20568;-70
2023/04/17 14:42:03;;;;;;;4.70;4.20;;;14.20;99.90;;;;;;5014352;28;20506;-70
2023/04/17 14:44:31;;;;;;;4.20;3.90;;;14.20;99.90;;;;;;5013888;28;20486;-70
2023/04/17 14:47:01;;;;;;;3.37;3.13;;;14.30;99.90;;;;;;5021490;28;20533;-69
2023/04/17 14:49:35;;;;;;;3.37;3.17;;;14.30;99.90;;;;;;5026997;28;20472;-72
2023/04/17 14:52:12;;;;;;;5.40;3.83;;;14.30;99.90;;;;;;5034542;28;20554;-71
2023/04/17 14:54:44;;;;;;;3.83;3.63;;;14.20;99.90;;;;;;5033310;28;20484;-70
2023/04/17 14:57:14;;;;;;;6.33;4.07;;;14.40;99.90;;;;;;5017916;28;20461;-71
2023/04/17 14:59:44;;;;;;;4.47;3.57;;;14.50;99.90;;;;;;5025987;28;20468;-72
2023/04/17 15:02:23;;;;;;;2.50;2.40;;;14.60;99.90;;;;;;5026536;28;20457;-70
2023/04/17 15:04:55;;;;;;;4.27;2.63;;;14.60;99.90;;;;;;5034240;28;20515;-70
2023/04/17 15:07:29;;;;;;;4.30;3.90;;;14.30;99.90;;;;;;5034152;28;20476;-71
2023/04/17 15:09:59;;;;;;;3.37;3.17;;;14.10;99.90;;;;;;5034153;28;20491;-70
2023/04/17 15:12:39;;;;;;;12.70;4.60;;;14.00;99.90;;;;;;5022029;28;20485;-71
2023/04/17 15:15:10;;;;;;;11.90;4.87;;;13.80;99.90;;;;;;5022913;28;20493;-71
2023/04/17 15:17:59;;;;;;;10.83;5.40;;;13.60;99.90;;;;;;5015022;28;20481;-70
2023/04/17 15:20:29;;;;;;;5.93;4.57;;;13.40;99.90;;;;;;5015165;28;20527;-69
2023/04/17 15:23:03;;;;;;;7.20;5.30;;;13.50;99.90;;;;;;5013590;28;20462;-69
2023/04/17 15:25:30;;;;;;;5.47;4.00;;;13.60;99.90;;;;;;5016801;28;20497;-68
2023/04/17 15:28:08;;;;;;;7.87;4.57;;;13.70;99.90;;;;;;5016207;28;20477;-69
2023/04/17 15:30:39;;;;;;;4.20;3.87;;;13.70;99.90;;;;;;5011873;28;20462;-68
2023/04/17 15:33:11;;;;;;;7.63;6.67;;;13.80;99.90;;;;;;5014721;28;20501;-68
2023/04/17 15:35:49;;;;;;;5.67;3.10;;;13.70;99.90;;;;;;5021373;28;20489;-68
2023/04/17 15:38:16;;;;;;;4.60;4.17;;;13.60;99.90;;;;;;5013742;28;20501;-69
2023/04/17 15:40:42;;;;;;;4.00;3.60;;;13.50;99.90;;;;;;5015014;28;20466;-69
2023/04/17 15:43:10;;;;;;;4.60;4.40;;;13.40;99.90;;;;;;5014957;28;20450;-69
2023/04/17 15:45:37;;;;;;;4.53;3.00;;;13.30;99.90;;;;;;5018045;28;20602;-69
2023/04/17 15:48:04;;;;;;;2.63;2.50;;;13.30;99.90;;;;;;5026482;28;20464;-70
2023/04/17 15:50:30;;;;;;;4.27;3.03;;;13.10;99.90;;;;;;5034987;28;20960;-70
2023/04/17 15:53:00;;;;;;;4.13;3.73;;;12.90;99.90;;;;;;5032991;28;20489;-69
2023/04/17 15:55:26;;;;;;;4.07;3.73;;;12.80;99.90;;;;;;5032804;28;20926;-69
2023/04/17 15:57:53;;;;;;;3.43;3.13;;;12.70;99.90;;;;;;5028293;28;20481;-69
2023/04/17 16:00:20;;;;;;;4.00;2.83;;;12.70;99.90;;;;;;5025130;28;20461;-68
2023/04/17 16:02:48;;;;;;;3.88;3.03;;;12.70;99.90;;;;;;5033284;28;20464;-70
2023/04/17 16:05:15;;;;;;;3.93;3.70;;;12.70;99.90;;;;;;5032876;28;20317;-69
2023/04/17 16:07:42;;;;;;;1.98;1.85;;;12.70;99.90;;;;;;5032787;28;20465;-68
2023/04/17 16:10:13;;;;;;;3.35;2.25;;;12.70;99.90;;;;;;5031728;28;20217;-69
2023/04/17 16:12:41;;;;;;;2.40;2.20;;;12.50;99.90;;;;;;5015246;28;20223;-69
2023/04/17 16:17:41;;;;;;;2.80;2.70;;;12.40;99.90;;;;;;5051355;28;20463;-69
2023/04/17 16:20:08;;;;;;;3.72;3.53;;;12.40;99.90;;;;;;5053968;28;20530;-70
2023/04/17 16:22:35;;;;;;;2.10;2.00;;;12.50;99.90;;;;;;5053002;28;20288;-69
2023/04/17 16:25:02;;;;;;;2.23;2.23;;;12.40;99.90;;;;;;5050433;28;20464;-70
2023/04/17 16:27:31;;;;;;;3.43;2.30;;;12.30;99.90;;;;;;5033982;28;20477;-70
2023/04/17 16:29:58;;;;;;;1.80;1.70;;;12.40;99.90;;;;;;5033458;28;20984;-70
2023/04/17 16:32:25;;;;;;;2.53;2.33;;;12.30;99.90;;;;;;5032858;28;20465;-69
2023/04/17 16:34:52;;;;;;;5.70;3.00;;;12.30;99.90;;;;;;5029388;28;20461;-70
2023/04/17 16:37:19;;;;;;;2.95;2.75;;;12.20;99.90;;;;;;5032069;28;20250;-69
2023/04/17 16:39:46;;;;;;;3.10;2.28;;;12.10;99.90;;;;;;5032382;28;20210;-69
2023/04/17 16:42:13;;;;;;;2.72;2.63;;;11.90;99.90;;;;;;5032723;28;20206;-70
2023/04/17 16:44:41;;;;;;;2.13;2.03;;;11.80;99.90;;;;;;5032366;28;20233;-70
2023/04/17 16:47:08;;;;;;;1.40;1.30;;;11.80;99.90;;;;;;5032775;28;20237;-70
2023/04/17 16:49:34;;;;;;;2.85;2.58;;;11.70;99.90;;;;;;5031624;28;20203;-70
2023/04/17 16:52:01;;;;;;;1.80;1.70;;;11.70;99.90;;;;;;5030801;28;20206;-69
2023/04/17 16:54:28;;;;;;;2.05;2.05;;;11.70;99.90;;;;;;5028446;28;20670;-69
2023/04/17 16:56:54;;;;;;;3.28;2.10;;;11.60;99.90;;;;;;5031276;28;20237;-69
2023/04/17 16:59:21;;;;;;;2.58;2.40;;;11.60;99.90;;;;;;5023990;28;20202;-68
2023/04/17 17:01:49;;;;;;;1.85;1.85;;;11.50;99.90;;;;;;5031847;28;20210;-69